Terminal Aerodrome Forecast
Issued by NWS

Home | Current Version | Previous Version | Text Only | Print | Product List | Glossary On
Versions: 1 2 3 4 5 6 7 8 9 10 11 12 13 14 15 16 17
000
FTUS44 KMAF 210304 AAA
TAFINK
TAF AMD
KINK 210304Z 2103/2124 10013KT P6SM SCT200
     FM211000 11013KT P6SM OVC019
     FM211500 13017KT P6SM OVC030
     FM212100 13018G28KT P6SM SCT050 BKN120=

USA.gov is the U.S. government's official web portal to all federal, state and local government web resources and services.